Observations for EAST MIDLANDS, United Kingdom (EGNX)

EGNX 141150Z 04016KT 6000 RA BKN006 BKN023 04/04 Q0997 RERA 
EGNX 141120Z 04017G28KT 6000 RA BKN007 BKN015 06/05 Q0996   
EGNX 141050Z 03016G26KT 340V060 9999 -RA SCT007 BKN010 06/05 Q0996  
EGNX 141020Z 02015KT 340V050 9999 -RA BKN009 06/05 Q0996 RERA   
EGNX 140950Z 02016KT 9999 RA SCT008 BKN018 06/05 Q0996  
EGNX 140850Z 02015KT 9999 -RA BKN007 05/05 Q0995 RERA   
EGNX 140820Z 03015KT 9999 RA BKN008 BKN026 06/05 Q0995  
EGNX 140750Z 02013KT 350V050 9999 RA SCT013 BKN021 BKN037 06/05 Q0994   
EGNX 140720Z 03013G23KT 360V060 7000 RA BKN014 BKN023 06/05 Q0994   
EGNX 140650Z 03013KT 9999 -RA SCT007 BKN025 06/05 Q0994 RERA
EGNX 140620Z 03013KT 360V070 9999 RA BKN007 BKN021 06/05 Q0994  
EGNX 140550Z 03013KT 360V070 9999 RA SCT008 BKN024 06/05 Q0993  
EGNX 140520Z 03015KT 9999 FEW007 SCT014 BKN024 05/05 Q0993  
EGNX 140450Z 04013KT 9999 -RA SCT010 BKN034 06/05 Q0992 
EGNX 140420Z 04013KT 9999 -RA FEW010 BKN030 05/04 Q0992 
EGNX 140350Z 05015KT 9999 SCT030 BKN042 05/04 Q0992 
EGNX 140320Z 05014KT 9999 FEW025 BKN034 05/04 Q0992 
EGNX 140250Z 05012KT 9999 SCT022 BKN041 05/04 Q0992 
EGNX 140220Z 05011KT 9999 FEW007 SCT024 BKN039 04/04 Q0992  
EGNX 140150Z 05011KT 9999 FEW007 SCT028 04/03 Q0991 
EGNX 140120Z 05012KT 9999 -RA SCT026 BKN033 03/03 Q0991 RERA
EGNX 140050Z 05014KT 9999 RA FEW013 SCT029 BKN046 03/02 Q0991   
EGNX 140020Z 05010KT 9999 BKN028 BKN045 03/02 Q0991 
EGNX 132350Z 05008KT 7000 -RA BKN028 03/02 Q0991
EGNX 132320Z 05008KT 9999 BKN039 03/02 Q0991
EGNX 132250Z 05007KT 9999 SCT026 SCT044 03/02 Q0991 
EGNX 132220Z 07008KT 9999 SCT033 03/02 Q0992
EGNX 132150Z 08006KT 9999 FEW036 02/01 Q0992
EGNX 132120Z 07008KT CAVOK 02/02 Q0992  
EGNX 132050Z 09009KT CAVOK 02/01 Q0992  
EGNX 132020Z 08008KT CAVOK 02/01 Q0992  
EGNX 131950Z 10008KT CAVOK 03/02 Q0992  
EGNX 131920Z 10007KT CAVOK 03/02 Q0992  
EGNX 131850Z 10008KT CAVOK 03/03 Q0993  
EGNX 131820Z 11007KT CAVOK 03/02 Q0993  
EGNX 131750Z 12007KT CAVOK 04/03 Q0993  
EGNX 131720Z 11004KT 9999 FEW022 04/02 Q0994
EGNX 131650Z 13005KT 9999 FEW026 05/02 Q0994
EGNX 131620Z 13006KT 9999 FEW025 05/03 Q0994
EGNX 131550Z 13006KT 9999 FEW023 06/03 Q0995
EGNX 131520Z 17007KT 9999 SCT023 07/03 Q0995
EGNX 131450Z 20008KT 9999 SCT023 07/03 Q0995
EGNX 131420Z 18006KT 9999 SCT026 07/03 Q0996
EGNX 131350Z 20010KT 9999 SCT020 07/03 Q0996
EGNX 131320Z 18008KT 9999 SCT020 07/03 Q0996
EGNX 131250Z 19006KT 9999 BKN027 07/04 Q0997
EGNX 131220Z 21007KT 9999 SCT020 BKN030 07/03 Q0997 
EGNX 131150Z 21007KT 170V240 9999 FEW013 SCT028 06/03 Q0998